createdAt,value
2023-01-20T00:01:23.660Z,14.88
2023-01-20T00:03:53.658Z,10.97
2023-01-20T00:06:22.098Z,11.18
2023-01-20T00:08:53.331Z,10.05
2023-01-20T00:11:21.228Z,10.13
2023-01-20T00:13:48.977Z,13.13
2023-01-20T00:16:15.897Z,11.47
2023-01-20T00:18:43.079Z,13.10
2023-01-20T00:21:13.295Z,13.82
2023-01-20T00:23:41.156Z,10.18
2023-01-20T00:26:11.346Z,12.05
2023-01-20T00:28:39.161Z,11.00
2023-01-20T00:31:20.131Z,13.80
2023-01-20T00:33:49.046Z,11.10
2023-01-20T00:36:17.574Z,10.00
2023-01-20T00:38:45.384Z,11.70
2023-01-20T00:41:12.616Z,12.80
2023-01-20T00:43:39.790Z,11.57
2023-01-20T00:46:07.493Z,9.68
2023-01-20T00:48:35.747Z,13.75
2023-01-20T00:51:03.486Z,17.98
2023-01-20T00:53:31.325Z,19.07
2023-01-20T00:55:58.187Z,22.13
2023-01-20T00:58:25.932Z,21.75
2023-01-20T01:00:53.906Z,19.63
2023-01-20T01:03:21.676Z,23.73
2023-01-20T01:05:48.651Z,20.47
2023-01-20T01:08:15.943Z,22.58
2023-01-20T01:10:42.806Z,16.10
2023-01-20T01:13:10.348Z,12.32
2023-01-20T01:15:37.487Z,11.63
2023-01-20T01:18:04.748Z,11.90
2023-01-20T01:20:31.806Z,11.45
2023-01-20T01:22:58.976Z,11.68
2023-01-20T01:25:25.888Z,10.05
2023-01-20T01:27:53.198Z,9.40
2023-01-20T01:30:20.098Z,13.07
2023-01-20T01:32:47.852Z,12.05
2023-01-20T01:35:15.326Z,11.85
2023-01-20T01:37:42.688Z,11.38
2023-01-20T01:40:10.511Z,13.48
2023-01-20T01:42:37.845Z,15.60
2023-01-20T01:45:10.770Z,18.15
2023-01-20T01:47:53.559Z,18.75
2023-01-20T01:50:25.213Z,15.65
2023-01-20T01:52:55.602Z,18.33
2023-01-20T01:55:27.056Z,13.23
2023-01-20T01:57:56.186Z,14.65
2023-01-20T02:00:23.229Z,11.13
2023-01-20T02:02:51.193Z,11.57
2023-01-20T02:05:19.079Z,12.07
2023-01-20T02:07:47.804Z,11.63
2023-01-20T02:10:16.175Z,11.85
2023-01-20T02:12:47.356Z,12.23
2023-01-20T02:15:15.037Z,11.30
2023-01-20T02:17:54.024Z,10.27
2023-01-20T02:20:49.349Z,9.67
2023-01-20T02:23:51.054Z,10.45
2023-01-20T02:26:55.007Z,10.48
2023-01-20T02:29:45.111Z,10.48
2023-01-20T02:32:21.995Z,14.57
2023-01-20T02:35:06.825Z,11.63
2023-01-20T02:38:00.926Z,11.68
2023-01-20T02:40:37.462Z,10.25
2023-01-20T02:43:16.774Z,10.40
2023-01-20T02:46:14.412Z,9.32
2023-01-20T02:48:51.596Z,9.37
2023-01-20T02:51:58.462Z,10.20
2023-01-20T02:54:29.660Z,8.68
2023-01-20T02:57:00.004Z,10.80
2023-01-20T02:59:30.498Z,9.75
2023-01-20T03:02:05.123Z,11.23
2023-01-20T03:04:37.166Z,10.05
2023-01-20T03:07:05.835Z,12.38
2023-01-20T03:09:43.481Z,11.15
2023-01-20T03:12:27.062Z,9.77
2023-01-20T03:14:54.052Z,10.07
2023-01-20T03:17:22.100Z,11.32
2023-01-20T03:19:49.341Z,11.40
2023-01-20T03:22:16.849Z,11.35
2023-01-20T03:24:46.359Z,8.88
2023-01-20T03:27:14.031Z,8.90
2023-01-20T03:29:40.873Z,11.07
2023-01-20T03:32:10.608Z,12.30
2023-01-20T03:34:39.885Z,15.75
2023-01-20T03:37:08.166Z,10.82
2023-01-20T03:39:39.765Z,9.40
2023-01-20T03:42:09.829Z,10.32
2023-01-20T03:44:36.588Z,9.60
2023-01-20T03:47:31.411Z,11.98
2023-01-20T03:50:13.289Z,9.35
2023-01-20T03:53:06.855Z,9.47
2023-01-20T03:55:41.638Z,10.15
2023-01-20T03:58:13.021Z,12.15
2023-01-20T04:00:43.366Z,10.07
2023-01-20T04:03:16.930Z,10.73
2023-01-20T04:05:45.128Z,10.77
2023-01-20T04:08:15.126Z,14.25
2023-01-20T04:10:45.137Z,11.10
2023-01-20T04:13:12.311Z,9.82
2023-01-20T04:15:45.241Z,13.07
2023-01-20T04:18:17.362Z,9.20
2023-01-20T04:20:46.385Z,12.73
2023-01-20T04:23:20.796Z,11.90
2023-01-20T04:25:47.680Z,11.85
2023-01-20T04:28:14.856Z,15.07
2023-01-20T04:30:41.758Z,10.33
2023-01-20T04:33:08.896Z,11.48
2023-01-20T04:35:35.683Z,13.77
2023-01-20T04:38:02.853Z,13.10
2023-01-20T04:40:29.808Z,10.85
2023-01-20T04:42:56.971Z,10.20
2023-01-20T04:45:24.426Z,12.05
2023-01-20T04:47:51.537Z,12.80
2023-01-20T04:50:18.491Z,12.38
2023-01-20T04:52:45.709Z,13.13
2023-01-20T04:55:13.250Z,11.73
2023-01-20T04:57:40.651Z,8.98
2023-01-20T05:00:08.536Z,10.35
2023-01-20T05:02:35.763Z,11.57
2023-01-20T05:05:02.689Z,13.30
2023-01-20T05:07:29.831Z,13.37
2023-01-20T05:09:56.583Z,13.90
2023-01-20T05:12:23.753Z,12.68
2023-01-20T05:14:50.607Z,13.77
2023-01-20T05:17:17.810Z,13.85
2023-01-20T05:19:44.590Z,12.35
2023-01-20T05:22:11.711Z,13.37
2023-01-20T05:24:38.937Z,12.02
2023-01-20T05:30:10.065Z,11.88
2023-01-20T05:32:37.529Z,12.18
2023-01-20T05:35:05.374Z,9.67
2023-01-20T05:37:32.451Z,9.98
2023-01-20T05:39:59.379Z,11.95
2023-01-20T05:42:26.483Z,12.18
2023-01-20T05:44:53.293Z,20.77
2023-01-20T05:47:20.435Z,16.20
2023-01-20T05:49:47.242Z,18.48
2023-01-20T05:52:14.674Z,16.63
2023-01-20T05:54:41.421Z,18.60
2023-01-20T05:57:08.616Z,17.40
2023-01-20T05:59:35.447Z,15.30
2023-01-20T06:02:02.652Z,17.90
2023-01-20T06:04:29.422Z,21.35
2023-01-20T06:06:56.541Z,19.85
2023-01-20T06:09:23.375Z,23.08
2023-01-20T06:11:51.135Z,23.73
2023-01-20T06:14:18.057Z,19.45
2023-01-20T06:16:45.484Z,27.52
2023-01-20T06:19:12.607Z,20.33
2023-01-20T06:21:39.771Z,20.10
2023-01-20T06:24:06.923Z,26.10
2023-01-20T06:26:34.168Z,24.00
2023-01-20T06:29:01.666Z,20.40
2023-01-20T06:31:28.887Z,15.70
2023-01-20T06:33:56.481Z,16.48
2023-01-20T06:36:23.666Z,14.43
2023-01-20T06:38:51.139Z,13.40
2023-01-20T06:41:19.549Z,17.02
2023-01-20T06:43:46.499Z,14.95
2023-01-20T06:46:15.940Z,12.98
2023-01-20T06:48:43.868Z,12.40
2023-01-20T06:51:23.957Z,11.73
2023-01-20T06:53:50.791Z,11.02
2023-01-20T06:56:17.876Z,13.73
2023-01-20T06:58:45.084Z,9.30
2023-01-20T07:01:20.554Z,12.23
2023-01-20T07:03:47.534Z,40.40
2023-01-20T07:06:38.501Z,32.25
2023-01-20T07:09:07.510Z,26.67
2023-01-20T07:11:35.908Z,30.65
2023-01-20T07:14:03.971Z,35.00
2023-01-20T07:16:31.213Z,21.13
2023-01-20T07:18:58.089Z,19.70
2023-01-20T07:21:26.695Z,21.88
2023-01-20T07:23:53.805Z,16.27
2023-01-20T07:26:26.677Z,17.33
2023-01-20T07:28:53.622Z,16.90
2023-01-20T07:31:25.031Z,15.35
2023-01-20T07:33:54.092Z,17.88
2023-01-20T07:36:21.629Z,31.05
2023-01-20T07:38:52.680Z,31.73
2023-01-20T07:41:21.250Z,38.75
2023-01-20T07:43:50.693Z,28.75
2023-01-20T07:46:18.755Z,27.17
2023-01-20T07:48:45.601Z,27.35
2023-01-20T07:51:14.971Z,24.47
2023-01-20T07:53:46.826Z,20.45
2023-01-20T07:56:16.862Z,24.42
2023-01-20T07:58:45.411Z,23.23
2023-01-20T08:01:18.599Z,29.17
2023-01-20T08:03:46.140Z,20.93
2023-01-20T08:06:15.563Z,19.23
2023-01-20T08:08:42.806Z,23.48
2023-01-20T08:11:13.092Z,19.88
2023-01-20T08:13:40.657Z,17.90
2023-01-20T08:16:11.896Z,19.07
2023-01-20T08:18:39.405Z,19.17
2023-01-20T08:21:08.540Z,23.48
2023-01-20T08:23:36.619Z,18.58
2023-01-20T08:26:06.347Z,17.60
2023-01-20T08:28:35.193Z,17.17
2023-01-20T08:31:12.217Z,21.48
2023-01-20T08:33:41.335Z,20.25
2023-01-20T08:36:11.518Z,17.60
2023-01-20T08:38:38.356Z,17.42
2023-01-20T08:41:10.294Z,21.20
2023-01-20T08:43:37.682Z,18.45
2023-01-20T08:46:10.218Z,21.35
2023-01-20T08:48:39.327Z,21.60
2023-01-20T08:51:09.717Z,14.95
2023-01-20T08:53:36.641Z,17.73
2023-01-20T08:56:04.156Z,18.83
2023-01-20T08:58:31.060Z,17.92
2023-01-20T09:00:58.344Z,20.92
2023-01-20T09:03:25.818Z,18.27
2023-01-20T09:05:53.300Z,24.43
2023-01-20T09:08:20.919Z,20.60
2023-01-20T09:10:48.164Z,25.20
2023-01-20T09:13:15.001Z,26.52
2023-01-20T09:15:42.127Z,21.98
2023-01-20T09:18:08.937Z,28.80
2023-01-20T09:20:36.056Z,34.60
2023-01-20T09:23:03.232Z,32.53
2023-01-20T09:25:30.494Z,34.67
2023-01-20T09:28:00.910Z,34.83
2023-01-20T09:30:28.486Z,27.87
2023-01-20T09:32:57.275Z,21.42
2023-01-20T09:35:24.411Z,30.13
2023-01-20T09:38:10.045Z,30.15
2023-01-20T09:41:07.110Z,32.45
2023-01-20T09:43:56.952Z,34.23
2023-01-20T09:46:45.587Z,26.48
2023-01-20T09:49:51.293Z,16.30
2023-01-20T09:52:52.234Z,18.05
2023-01-20T09:55:27.711Z,19.77
2023-01-20T09:58:02.390Z,18.77
2023-01-20T10:00:33.992Z,20.23
2023-01-20T10:03:16.128Z,24.42
2023-01-20T10:05:44.914Z,23.52
2023-01-20T10:08:21.793Z,22.45
2023-01-20T10:11:03.359Z,31.70
2023-01-20T10:13:47.433Z,38.40
2023-01-20T10:16:25.976Z,23.20
2023-01-20T10:18:59.888Z,18.35
2023-01-20T10:21:35.846Z,20.90
2023-01-20T10:24:28.565Z,22.60
2023-01-20T10:27:04.000Z,24.73
2023-01-20T10:29:35.212Z,20.08
2023-01-20T10:32:33.057Z,27.42
2023-01-20T10:35:23.383Z,33.80
2023-01-20T10:37:56.267Z,23.53
2023-01-20T10:40:49.121Z,22.50
2023-01-20T10:43:18.045Z,22.95
2023-01-20T10:45:59.495Z,25.65
2023-01-20T10:48:54.134Z,24.15
2023-01-20T10:51:35.799Z,23.37
2023-01-20T10:54:21.162Z,26.50
2023-01-20T10:56:55.674Z,30.23
2023-01-20T10:59:34.079Z,30.30
2023-01-20T11:02:14.252Z,39.08
2023-01-20T11:04:41.521Z,27.27
2023-01-20T11:07:15.314Z,30.13
2023-01-20T11:09:42.753Z,31.80
2023-01-20T11:12:17.216Z,21.60
2023-01-20T11:14:46.012Z,21.30
2023-01-20T11:17:20.340Z,26.80
2023-01-20T11:19:57.874Z,28.83
2023-01-20T11:22:37.447Z,30.73
2023-01-20T11:25:05.732Z,26.00
2023-01-20T11:27:44.801Z,27.02
2023-01-20T11:30:26.264Z,23.77
2023-01-20T11:33:23.256Z,31.02
2023-01-20T11:36:02.654Z,23.15
2023-01-20T11:38:50.885Z,24.05
2023-01-20T11:41:29.772Z,26.50
2023-01-20T11:43:59.525Z,27.60
2023-01-20T11:46:30.449Z,29.05
2023-01-20T11:49:19.510Z,29.00
2023-01-20T11:51:50.560Z,29.27
2023-01-20T11:54:21.389Z,23.75
2023-01-20T11:56:52.368Z,26.83
2023-01-20T11:59:24.261Z,26.80
2023-01-20T12:01:58.101Z,23.88
2023-01-20T12:05:04.185Z,31.27
2023-01-20T12:07:41.068Z,25.23
2023-01-20T12:10:19.215Z,33.70
2023-01-20T12:12:57.262Z,24.92
2023-01-20T12:15:27.486Z,23.23
2023-01-20T12:18:01.173Z,28.45
2023-01-20T12:20:54.087Z,29.67
2023-01-20T12:23:48.387Z,25.63
2023-01-20T12:26:18.332Z,23.50
2023-01-20T12:28:52.563Z,25.10
2023-01-20T12:31:21.134Z,23.75
2023-01-20T12:33:50.821Z,24.95
2023-01-20T12:36:50.088Z,27.47
2023-01-20T12:39:47.899Z,29.73
2023-01-20T12:42:30.361Z,29.10
2023-01-20T12:45:19.968Z,24.02
2023-01-20T12:48:18.212Z,21.75
2023-01-20T12:50:57.116Z,23.47
2023-01-20T12:53:39.158Z,29.90
2023-01-20T12:56:24.431Z,23.65
2023-01-20T12:59:04.571Z,22.45
2023-01-20T13:01:41.241Z,20.23
2023-01-20T13:04:53.014Z,25.03
2023-01-20T13:07:48.838Z,21.17
2023-01-20T13:10:27.342Z,21.77
2023-01-20T13:13:04.624Z,23.70
2023-01-20T13:15:39.576Z,20.30
2023-01-20T13:18:41.846Z,21.53
2023-01-20T13:21:22.361Z,16.83
2023-01-20T13:23:51.387Z,19.25
2023-01-20T13:26:19.044Z,19.60
2023-01-20T13:28:54.654Z,16.02
2023-01-20T13:31:50.490Z,23.07
2023-01-20T13:34:31.110Z,17.55
2023-01-20T13:37:04.871Z,17.50
2023-01-20T13:39:39.665Z,20.88
2023-01-20T13:42:32.113Z,20.35
2023-01-20T13:45:16.479Z,20.33
2023-01-20T13:47:59.252Z,17.70
2023-01-20T13:50:36.990Z,17.85
2023-01-20T13:53:10.255Z,18.48
2023-01-20T13:55:41.867Z,20.45
2023-01-20T13:58:28.179Z,18.67
2023-01-20T14:00:57.339Z,16.60
2023-01-20T14:03:28.085Z,19.30
2023-01-20T14:06:00.921Z,18.58
2023-01-20T14:08:31.645Z,20.83
2023-01-20T14:11:10.375Z,18.83
2023-01-20T14:13:37.960Z,17.50
2023-01-20T14:16:05.183Z,21.70
2023-01-20T14:18:33.355Z,17.73
2023-01-20T14:21:18.670Z,17.17
2023-01-20T14:23:48.736Z,17.33
2023-01-20T14:26:24.747Z,20.00
2023-01-20T14:28:57.443Z,16.75
2023-01-20T14:31:45.520Z,19.02
2023-01-20T14:34:32.205Z,19.38
2023-01-20T14:37:03.617Z,21.97
2023-01-20T14:39:31.129Z,12.95
2023-01-20T14:42:00.140Z,12.13
2023-01-20T14:44:29.927Z,10.25
2023-01-20T14:46:59.272Z,10.32
2023-01-20T14:49:33.633Z,18.77
2023-01-20T14:52:01.440Z,15.98
2023-01-20T14:54:34.565Z,12.25
2023-01-20T14:57:16.782Z,12.50
2023-01-20T14:59:44.252Z,12.52
2023-01-20T15:02:32.234Z,25.03
2023-01-20T15:04:59.700Z,27.65
2023-01-20T15:07:26.805Z,33.20
2023-01-20T15:10:09.584Z,25.27
2023-01-20T15:12:53.463Z,24.80
2023-01-20T15:15:27.362Z,17.27
2023-01-20T15:18:23.233Z,15.90
2023-01-20T15:21:11.644Z,13.48
2023-01-20T15:23:45.652Z,12.20
2023-01-20T15:26:24.697Z,11.90
2023-01-20T15:28:51.611Z,8.93
2023-01-20T15:31:18.990Z,12.77
2023-01-20T15:33:46.014Z,12.30
2023-01-20T15:36:21.036Z,15.50
2023-01-20T15:38:48.024Z,15.57
2023-01-20T15:41:15.119Z,16.10
2023-01-20T15:43:42.622Z,16.20
2023-01-20T15:46:14.890Z,18.75
2023-01-20T15:48:42.241Z,25.33
2023-01-20T15:51:14.974Z,22.02
2023-01-20T15:53:41.811Z,19.13
2023-01-20T15:56:35.259Z,23.63
2023-01-20T15:59:02.305Z,20.38
2023-01-20T16:01:29.874Z,23.83
2023-01-20T16:03:57.404Z,19.60
2023-01-20T16:06:31.062Z,25.47
2023-01-20T16:08:59.940Z,18.92
2023-01-20T16:11:27.359Z,17.15
2023-01-20T16:13:54.258Z,19.35
2023-01-20T16:16:24.004Z,26.73
2023-01-20T16:18:51.001Z,25.43
2023-01-20T16:21:20.020Z,24.40
2023-01-20T16:23:46.854Z,28.95
2023-01-20T16:26:22.932Z,22.83
2023-01-20T16:28:50.640Z,22.55
2023-01-20T16:31:18.162Z,16.43
2023-01-20T16:33:45.253Z,15.57
2023-01-20T16:36:15.908Z,18.55
2023-01-20T16:38:43.250Z,16.73
2023-01-20T16:41:21.376Z,20.05
2023-01-20T16:43:49.230Z,16.60
2023-01-20T16:46:22.326Z,16.60
2023-01-20T16:48:49.833Z,18.60
2023-01-20T16:51:20.343Z,17.42
2023-01-20T16:53:47.378Z,16.88
2023-01-20T16:56:17.119Z,13.90
2023-01-20T16:58:43.999Z,15.90
2023-01-20T17:01:14.169Z,16.05
2023-01-20T17:03:42.373Z,14.77
2023-01-20T17:06:18.118Z,19.48
2023-01-20T17:08:46.156Z,14.50
2023-01-20T17:11:33.357Z,16.20
2023-01-20T17:14:03.362Z,14.57
2023-01-20T17:16:31.399Z,17.90
2023-01-20T17:18:59.678Z,19.23
2023-01-20T17:21:29.870Z,15.67
2023-01-20T17:24:02.091Z,12.82
2023-01-20T17:26:30.091Z,14.85
2023-01-20T17:28:59.610Z,16.83
2023-01-20T17:31:28.270Z,15.45
2023-01-20T17:33:55.119Z,15.07
2023-01-20T17:36:22.280Z,16.55
2023-01-20T17:38:49.074Z,16.27
2023-01-20T17:41:16.310Z,15.88
2023-01-20T17:43:48.187Z,13.50
2023-01-20T17:46:16.743Z,14.23
2023-01-20T17:48:44.379Z,14.07
2023-01-20T17:51:17.543Z,13.65
2023-01-20T17:53:44.860Z,18.13
2023-01-20T17:56:13.901Z,12.80
2023-01-20T17:58:42.728Z,13.63
2023-01-20T18:01:19.221Z,19.52
2023-01-20T18:03:48.165Z,16.20
2023-01-20T18:06:17.785Z,16.08
2023-01-20T18:08:51.201Z,17.08
2023-01-20T18:11:22.948Z,16.80
2023-01-20T18:13:55.394Z,15.38
2023-01-20T18:16:26.448Z,25.48
2023-01-20T18:18:58.530Z,27.38
2023-01-20T18:21:28.933Z,27.58
2023-01-20T18:23:56.739Z,25.50
2023-01-20T18:26:25.995Z,19.90
2023-01-20T18:28:57.662Z,25.50
2023-01-20T18:31:26.616Z,26.05
2023-01-20T18:33:59.187Z,20.88
2023-01-20T18:36:32.978Z,13.70
2023-01-20T18:39:02.947Z,15.90
2023-01-20T18:41:32.222Z,15.82
2023-01-20T18:43:59.562Z,12.63
2023-01-20T18:46:27.639Z,14.80
2023-01-20T18:48:55.453Z,14.73
2023-01-20T18:51:25.787Z,16.20
2023-01-20T18:54:01.197Z,13.57
2023-01-20T18:56:29.339Z,11.27
2023-01-20T18:58:57.224Z,14.93
2023-01-20T19:01:28.828Z,13.30
2023-01-20T19:03:56.830Z,14.80
2023-01-20T19:06:26.549Z,15.50
2023-01-20T19:08:55.317Z,15.45
2023-01-20T19:11:25.511Z,14.25
2023-01-20T19:13:53.625Z,14.07
2023-01-20T19:16:23.628Z,13.23
2023-01-20T19:18:59.477Z,14.25
2023-01-20T19:21:27.355Z,15.77
2023-01-20T19:23:56.826Z,16.73
2023-01-20T19:26:25.757Z,17.27
2023-01-20T19:28:58.196Z,18.15
2023-01-20T19:31:25.565Z,14.10
2023-01-20T19:33:52.707Z,15.20
2023-01-20T19:36:20.631Z,16.67
2023-01-20T19:38:47.598Z,14.83
2023-01-20T19:41:18.516Z,17.42
2023-01-20T19:43:46.012Z,18.00
2023-01-20T19:46:16.455Z,27.58
2023-01-20T19:48:43.673Z,42.47
2023-01-20T19:51:15.641Z,34.30
2023-01-20T19:53:44.077Z,26.15
2023-01-20T19:56:19.044Z,23.40
2023-01-20T19:58:47.768Z,16.85
2023-01-20T20:01:20.377Z,18.52
2023-01-20T20:03:48.526Z,15.47
2023-01-20T20:06:36.369Z,17.10
2023-01-20T20:09:18.675Z,15.32
2023-01-20T20:11:47.538Z,15.40
2023-01-20T20:14:16.593Z,15.65
2023-01-20T20:16:44.067Z,18.83
2023-01-20T20:19:16.269Z,19.42
2023-01-20T20:21:44.368Z,18.58
2023-01-20T20:24:13.196Z,19.20
2023-01-20T20:26:41.378Z,20.60
2023-01-20T20:29:09.159Z,17.83
2023-01-20T20:31:38.051Z,19.80
2023-01-20T20:34:06.430Z,17.40
2023-01-20T20:36:34.611Z,19.67
2023-01-20T20:39:05.050Z,22.55
2023-01-20T20:41:35.424Z,20.53
2023-01-20T20:44:04.327Z,20.15
2023-01-20T20:46:31.778Z,18.65
2023-01-20T20:49:01.075Z,22.35
2023-01-20T20:51:31.855Z,19.17
2023-01-20T20:54:00.658Z,24.73
2023-01-20T20:56:31.837Z,18.27
2023-01-20T20:59:02.559Z,29.45
2023-01-20T21:01:32.992Z,52.63
2023-01-20T21:04:01.058Z,38.17
2023-01-20T21:06:29.081Z,32.53
2023-01-20T21:08:56.474Z,28.13
2023-01-20T21:11:25.032Z,28.85
2023-01-20T21:13:52.996Z,25.83
2023-01-20T21:16:23.362Z,26.75
2023-01-20T21:18:52.717Z,22.30
2023-01-20T21:21:20.134Z,20.88
2023-01-20T21:23:52.078Z,18.67
2023-01-20T21:26:19.448Z,22.95
2023-01-20T21:28:49.410Z,20.20
2023-01-20T21:31:19.253Z,20.23
2023-01-20T21:33:48.321Z,20.63
2023-01-20T21:36:15.151Z,26.38
2023-01-20T21:38:46.521Z,17.73
2023-01-20T21:41:14.853Z,15.75
2023-01-20T21:44:02.634Z,16.20
2023-01-20T21:46:38.222Z,20.13
2023-01-20T21:49:25.190Z,15.73
2023-01-20T21:52:10.639Z,16.73
2023-01-20T21:54:39.879Z,17.33
2023-01-20T21:57:07.129Z,16.43
2023-01-20T21:59:34.361Z,17.17
2023-01-20T22:02:04.106Z,15.48
2023-01-20T22:04:32.193Z,18.45
2023-01-20T22:07:00.274Z,14.15
2023-01-20T22:09:27.393Z,13.97
2023-01-20T22:11:54.272Z,19.10
2023-01-20T22:14:21.398Z,16.10
2023-01-20T22:16:48.172Z,14.27
2023-01-20T22:19:15.485Z,14.05
2023-01-20T22:21:42.596Z,15.53
2023-01-20T22:24:10.681Z,12.88
2023-01-20T22:26:37.713Z,14.48
2023-01-20T22:29:04.881Z,12.75
2023-01-20T22:31:34.201Z,13.18
2023-01-20T22:34:04.524Z,14.03
2023-01-20T22:36:31.325Z,15.15
2023-01-20T22:38:58.727Z,12.77
2023-01-20T22:41:26.138Z,9.90
2023-01-20T22:43:53.364Z,16.63
2023-01-20T22:46:21.929Z,15.23
2023-01-20T22:48:49.371Z,11.80
2023-01-20T22:51:19.085Z,12.43
2023-01-20T22:53:46.314Z,14.43
2023-01-20T22:56:14.842Z,10.70
2023-01-20T22:58:43.529Z,10.73
2023-01-20T23:01:15.499Z,14.32
2023-01-20T23:03:43.543Z,12.98
2023-01-20T23:06:11.564Z,12.70
2023-01-20T23:08:38.978Z,15.70
2023-01-20T23:11:11.169Z,12.87
2023-01-20T23:13:38.820Z,12.88
2023-01-20T23:16:10.009Z,13.30
2023-01-20T23:18:37.339Z,13.75
2023-01-20T23:21:06.062Z,15.57
2023-01-20T23:23:33.712Z,14.50
2023-01-20T23:26:09.860Z,11.88
2023-01-20T23:28:36.934Z,14.55
2023-01-20T23:31:06.794Z,13.32
2023-01-20T23:33:34.479Z,13.63
2023-01-20T23:36:10.570Z,19.37
2023-01-20T23:38:37.761Z,19.95
2023-01-20T23:41:05.022Z,21.67
2023-01-20T23:43:32.543Z,15.68
2023-01-20T23:46:00.879Z,15.27
2023-01-20T23:48:28.524Z,14.87
2023-01-20T23:50:56.552Z,15.82
2023-01-20T23:53:23.714Z,14.98
2023-01-20T23:55:50.505Z,12.50
2023-01-20T23:58:17.792Z,16.02
